Terminal Aerodrome Forecast
Issued by NWS

Home | Current Version | Previous Version | Text Only | Print | Product List | Glossary Off
Versions: 1 2 3 4 5 6 7 8 9 10 11 12 13 14 15 16 17 18 19 20 21 22 23 24 25 26 27 28 29 30 31

286
FTUS43 KLOT 031137
TAFORD
TAF
KORD 031137Z 0312/0418 28007KT P6SM OVC027
     FM031500 29007KT P6SM OVC035
     FM040100 VRB03KT P6SM BKN040 OVC090
     FM041200 18005KT 6SM -SN OVC060
     FM041400 17006KT 3SM -SN SCT025 OVC050
     FM041530 17007KT 1SM -SN OVC015=

USA.gov is the U.S. government's official web portal to all federal, state and local government web resources and services.